Latest Coastal Weather Observations for Wynyard

IDT60701

Issued at 4:51 pm EDT Tuesday 27 January 2015 (issued every 10 minutes, with the page automatically refreshed every 10 minutes)

About coastal observations | Map of coastal stations | Coastal observations for TAS | Marine services | Other Formats
Station Details ID: 091107 Name: WYNYARD AIRPORT Lat: -41.00 Lon: 145.73 Height: 12.0 m
Data from the previous 72 hours. | See also: Recent months at Wynyard
Date/Time
EDT
Temp

°C
Wind Pressure Rain
since 9am
mm
Weather Cloud Vis
km
Sea
Height
m
Swell
Dir
 
Speed
knots
Gust
knots
hPa Trend Height
m
Period
s
Dir
27/04:30pm 19.7 NNE 9 12 1015.4 - 0.0 - - 10 - - - -
27/04:00pm 19.3 NE 11 14 1015.4 - 0.0 - - 10 - - - -
27/03:30pm 20.2 NNE 11 13 1015.6 - 0.0 - - 10 - - - -
27/03:00pm 19.1 NNE 9 11 1015.7 - 0.0 - - 10 - - - -
27/02:30pm 18.6 NNE 10 12 1015.8 - 0.0 - Partly cloudy 10 - - - -
27/02:00pm 18.4 NNE 10 14 1015.9 - 0.0 - - 10 - - - -
27/01:30pm 19.2 NE 11 15 1016.1 - 0.0 - Partly cloudy 10 - - - -
27/01:00pm 18.4 NE 12 15 1016.2 - 0.0 - - 10 - - - -
27/12:30pm 18.1 NE 11 15 1016.3 - 0.0 - Partly cloudy 10 - - - -
27/12:00pm 19.8 SSW 10 16 1016.4 - 0.0 - - 10 - - - -
27/11:30am 19.5 S 9 15 1016.7 - 0.0 - - 10 - - - -
27/11:00am 18.4 S 10 15 1016.8 - 0.0 - - 10 - - - -
27/10:30am 18.3 SSW 11 16 1016.8 - 0.0 - - 10 - - - -
27/10:00am 17.5 S 11 17 1016.8 - 0.0 - - 10 - - - -
27/09:30am 16.7 S 9 14 1016.7 - 0.0 - - 10 - - - -
27/08:30am 14.2 SSW 9 14 1016.7 - 0.0 - - 10 - - - -
27/08:00am 13.0 SSW 7 11 1016.5 - 0.0 - - 10 - - - -
27/07:30am 11.7 SSW 9 11 1016.3 - 0.0 - - 10 - - - -
27/07:00am 10.6 SSW 6 8 1016.1 - 0.0 - - 10 - - - -
27/06:30am 9.8 SSW 7 11 1015.9 - 0.0 - - 10 - - - -
27/06:00am 10.0 SSW 7 9 1015.7 - 0.0 - - 10 - - - -
27/05:30am 10.4 S 7 12 1015.5 - 0.0 - - 10 - - - -
27/05:00am 10.8 SSW 9 13 1015.4 - 0.0 - - 10 - - - -
27/04:30am 11.1 SSW 9 14 1015.4 - 0.0 - - 10 - - - -
27/04:00am 11.1 SSW 9 16 1015.6 - 0.0 - - 10 - - - -
27/03:30am 11.1 SSW 10 16 1015.7 - 0.0 - - 10 - - - -
27/03:00am 11.0 SSW 8 13 1015.8 - 0.0 - - 10 - - - -
27/02:30am 10.3 SSW 7 11 1015.9 - 0.0 - - 10 - - - -
27/02:00am 9.6 WSW 7 8 1016.2 - 0.0 - - 10 - - - -
27/01:30am 9.9 SW 7 10 1016.4 - 0.0 - - 10 - - - -
27/01:00am 9.6 WSW 8 9 1016.4 - 0.0 - - 10 - - - -
27/12:30am 9.3 W 8 9 1016.6 - 0.0 - - 10 - - - -
 
Date/Time
EDT
Temp

°C
Wind Pressure Rain
since 9am
mm
Weather Cloud Vis
km
Sea
Height
m
Swell
Dir
 
Speed
knots
Gust
knots
hPa Trend Height
m
Period
s
Dir
26/11:30pm 9.8 WSW 8 9 1016.6 - 0.0 - - 10 - - - -
26/11:00pm 10.3 W 10 11 1016.8 - 0.0 - - 10 - - - -
26/10:30pm 11.0 W 10 13 1016.8 - 0.0 - - 10 - - - -
26/10:00pm 11.7 WSW 8 10 1016.8 - 0.0 - - 10 - - - -
26/09:30pm 11.1 SSW 8 11 1016.5 - 0.0 - - 10 - - - -
26/09:00pm 13.3 SW 7 10 1016.3 - 0.0 - - 10 - - - -
26/08:30pm 14.9 SSW 8 11 1016.0 - 0.0 - - 10 - - - -
26/08:00pm 16.0 SSW 9 13 1015.7 - 0.0 - - 10 - - - -
26/07:30pm 16.7 SSW 10 15 1015.3 - 0.0 - - 10 - - - -
26/07:00pm 17.5 SSW 11 17 1014.9 - 0.0 - - 10 - - - -
26/06:30pm 18.6 SW 13 19 1014.5 - 0.0 - - 10 - - - -
26/06:00pm 19.2 SW 11 17 1014.4 - 0.0 - - 10 - - - -
26/05:30pm 18.4 SSW 11 18 1014.4 - 0.0 - - 10 - - - -
26/05:00pm 19.3 SSW 12 18 1014.4 - 0.0 - Partly cloudy 10 - - - -
26/04:30pm 18.6 SSW 11 18 1014.5 - 0.0 - Cloudy 10 - - - -
26/04:00pm 18.4 SSW 8 12 1014.6 - 0.0 - Cloudy 10 - - - -
26/03:30pm 19.1 SSW 13 18 1014.7 - 0.0 - Partly cloudy 10 - - - -
26/03:00pm 18.6 SW 11 19 1014.6 - 0.0 - Partly cloudy 10 - - - -
26/02:30pm 18.5 SSW 12 17 1014.6 - 0.0 - Partly cloudy 10 - - - -
26/02:00pm 17.6 SSW 15 28 1014.7 - 0.0 - Partly cloudy 10 - - - -
26/01:55pm 18.3 SW 15 28 1014.8 - 0.0 - Partly cloudy 10 - - - -
26/01:30pm 18.6 SW 15 21 1015.0 - 0.0 - Partly cloudy 10 - - - -
26/01:00pm 18.4 SW 14 18 1015.1 - 0.0 - Partly cloudy 10 - - - -
26/12:30pm 18.1 SW 11 17 1015.0 - 0.0 - Partly cloudy 10 - - - -
26/12:00pm 17.4 SW 15 23 1015.1 - 0.0 - Partly cloudy 10 - - - -
26/11:30am 16.6 SW 14 22 1015.1 - 0.0 - Partly cloudy 10 - - - -
26/11:00am 17.7 SW 15 22 1015.3 - 0.0 - - 10 - - - -
26/10:30am 15.7 SW 16 20 1015.2 - 0.0 - - 10 - - - -
26/10:00am 15.3 SW 11 20 1015.0 - 0.0 - Partly cloudy 10 - - - -
26/09:30am 14.2 WSW 7 10 1015.0 - 0.0 - - 10 - - - -
26/09:00am 13.4 WSW 9 11 1014.9 - 1.8 - - 10 - - - -
26/08:30am 11.9 SW 10 13 1014.5 - 1.8 - - 10 - - - -
26/08:00am 10.6 WSW 6 8 1014.1 - 1.8 - - 10 - - - -
26/07:30am 9.4 WNW 7 8 1013.6 - 1.8 - - 10 - - - -
26/07:00am 7.6 WNW 7 7 1013.3 - 1.8 - - 10 - - - -
26/06:30am 5.4 WSW 6 7 1012.9 - 1.8 - Partly cloudy 10 - - - -
26/06:00am 4.5 WSW 7 8 1012.4 - 1.8 - Mostly clear 10 - - - -
26/05:30am 5.3 W 8 9 1012.0 - 1.8 - - 10 - - - -
26/05:00am 5.2 WSW 7 8 1011.5 - 1.8 - - 10 - - - -
26/04:30am 6.6 WNW 6 7 1010.9 - 1.8 - - 10 - - - -
26/04:00am 5.1 SW 6 7 1010.9 - 1.8 - - 10 - - - -
26/03:30am 6.9 CALM 0 4 1010.7 - 1.8 - - 10 - - - -
26/03:00am 7.1 N 3 4 1010.3 - 1.8 - Mostly clear 10 - - - -
26/02:30am 7.1 CALM 0 0 1010.1 - 1.8 - - 10 - - - -
26/02:00am 8.4 NW 5 7 1010.0 - 1.8 - - 10 - - - -
26/01:30am 8.7 NW 5 6 1009.9 - 1.8 - Partly cloudy 10 - - - -
26/01:00am 7.7 WNW 3 6 1009.8 - 1.8 - - 10 - - - -
26/12:30am 8.5 WSW 5 9 1009.7 - 1.8 - - 10 - - - -
26/12:00am 8.7 SW 7 10 1009.4 - 1.8 - - 10 - - - -
 
Date/Time
EDT
Temp

°C
Wind Pressure Rain
since 9am
mm
Weather Cloud Vis
km
Sea
Height
m
Swell
Dir
 
Speed
knots
Gust
knots
hPa Trend Height
m
Period
s
Dir
25/11:30pm 9.2 SW 9 13 1009.4 - 1.8 - Partly cloudy 10 - - - -
25/11:00pm 8.6 W 7 9 1009.5 - 1.8 - - 10 - - - -
25/10:30pm 9.2 W 9 10 1009.2 - 1.8 - - 10 - - - -
25/10:00pm 9.4 W 9 12 1008.8 - 1.8 - - 10 - - - -
25/09:30pm 9.9 WSW 11 15 1008.6 - 1.8 - - 10 - - - -
25/09:00pm 10.3 WSW 11 15 1008.0 - 1.8 Recent precip. - 10 - - - -
25/08:30pm 10.5 SW 12 18 1007.6 - 1.8 - - 10 - - - -
25/08:00pm 11.9 WSW 13 18 1007.2 - 1.6 - Partly cloudy 10 - - - -
25/07:30pm 12.4 W 13 17 1006.4 - 1.6 - - 10 - - - -
25/07:00pm 12.2 W 17 22 1006.1 - 1.6 - Partly cloudy 10 - - - -
25/06:54pm 12.2 WSW 21 33 1006.0 - 1.6 - Partly cloudy 10 - - - -
25/06:30pm 14.3 SW 23 33 1005.4 - 1.6 - Partly cloudy 10 - - - -
25/06:02pm 15.2 WSW 22 32 1004.9 - 1.6 - Partly cloudy 10 - - - -
25/06:00pm 15.1 WSW 23 32 1004.9 - 1.6 - Mostly clear 10 - - - -
25/05:42pm 15.1 WSW 19 29 1004.8 - 1.6 - - 10 - - - -
25/05:30pm 15.3 WSW 18 23 1004.7 - 1.6 - Partly cloudy 10 - - - -
25/05:05pm 13.7 WSW 21 32 1004.8 - 1.6 - Partly cloudy 10 - - - -
25/05:00pm 14.2 WSW 19 28 1004.6 - 1.6 - Partly cloudy 10 - - - -
25/04:48pm 14.6 WSW 18 26 1004.3 - 1.6 - Partly cloudy 10 - - - -
25/04:38pm 13.9 SW 17 28 1004.4 - 1.6 - Partly cloudy 10 - - - -
25/04:30pm 13.2 SW 15 20 1004.4 - 1.6 - Partly cloudy 10 - - - -
25/04:14pm 12.1 SW 20 30 1004.7 - 1.4 - Partly cloudy 10 - - - -
25/04:06pm 14.5 WSW 19 28 1004.1 - 1.4 - Partly cloudy 10 - - - -
25/04:00pm 15.9 W 21 29 1003.8 - 1.4 - Partly cloudy 10 - - - -
25/03:56pm 16.6 W 19 29 1003.8 - 1.4 - Partly cloudy 10 - - - -
25/03:30pm 15.9 WSW 20 30 1003.7 - 1.4 - Partly cloudy 10 - - - -
25/03:00pm 15.3 SW 19 29 1003.6 - 1.4 Recent precip. Partly cloudy 10 - - - -
25/02:51pm 14.3 WSW 15 25 1003.8 - 1.4 - Partly cloudy 10 - - - -
25/02:30pm 12.4 SW 17 26 1004.1 - 1.4 - Partly cloudy 10 - - - -
25/02:25pm 13.4 SW 17 26 1004.0 - 1.4 - Partly cloudy 10 - - - -
25/02:10pm 10.9 SW 27 37 1004.0 - 1.4 - Partly cloudy 4 - - - -
25/02:08pm 11.0 SW 27 37 1004.0 - 1.0 - Partly cloudy 5 - - - -
25/02:04pm 11.9 WSW 25 36 1003.6 - 0.8 - Partly cloudy 10 - - - -
25/02:00pm 16.0 WSW 22 36 1003.0 - 0.8 - Partly cloudy 10 - - - -
25/01:57pm 16.6 WSW 21 36 1003.0 - 0.8 - Partly cloudy 10 - - - -
25/01:56pm 17.4 WSW 21 27 1002.9 - 0.8 - Partly cloudy 10 - - - -
25/01:46pm 16.1 WSW 19 27 1002.9 - 0.8 - Partly cloudy 10 - - - -
25/01:30pm 15.4 W 21 32 1002.8 - 0.8 - Partly cloudy 10 - - - -
25/01:00pm 16.3 W 18 28 1002.8 - 0.8 - Partly cloudy 10 - - - -
25/12:46pm 15.5 WSW 17 28 1002.8 - 0.8 - Partly cloudy 10 - - - -
25/12:30pm 14.2 WSW 15 21 1002.9 - 0.8 - Partly cloudy 10 - - - -
25/12:08pm 14.7 WSW 19 33 1002.6 - 0.6 - Partly cloudy 10 - - - -
25/12:00pm 14.6 SW 20 26 1002.5 - 0.6 Recent precip. Partly cloudy 10 - - - -
25/11:35am 14.5 WSW 19 30 1002.4 - 0.6 - - 10 - - - -
25/11:30am 14.5 WSW 18 24 1002.5 - 0.6 - Partly cloudy 10 - - - -
25/11:26am 14.4 WSW 17 24 1002.4 - 0.6 - Partly cloudy 10 - - - -
25/11:07am 12.6 WSW 21 32 1002.6 - 0.6 - Partly cloudy 5 - - - -
25/11:04am 14.7 WSW 19 31 1002.2 - 0.0 - Partly cloudy 10 - - - -
25/11:00am 16.0 WSW 17 22 1002.1 - 0.0 - Partly cloudy 10 - - - -
25/10:30am 16.0 WSW 17 23 1002.1 - 0.0 - Partly cloudy 10 - - - -
25/10:00am 14.0 SW 17 24 1002.0 - 0.0 - Partly cloudy 10 - - - -
25/09:30am 14.6 WSW 14 19 1002.0 - 0.0 - - 10 - - - -
25/09:00am 13.4 SW 10 14 1001.9 - 2.4 Recent precip. Partly cloudy 10 - - - -
25/08:30am 13.6 WSW 12 18 1001.7 - 2.2 - - 10 - - - -
25/08:00am 12.8 SW 9 14 1000.9 - 2.2 - - 10 - - - -
25/07:30am 11.9 SW 9 12 1000.6 - 2.2 - Partly cloudy 10 - - - -
25/07:00am 12.1 WSW 9 11 1000.4 - 2.2 - Partly cloudy 10 - - - -
25/06:30am 12.4 W 9 11 1000.0 - 2.2 - Partly cloudy 10 - - - -
25/06:00am 12.6 W 8 12 999.4 - 2.2 Rain Cloudy 10 - - - -
25/05:30am 12.8 WSW 9 14 999.2 - 1.6 - Partly cloudy 10 - - - -
25/05:00am 12.9 SW 10 12 998.5 - 0.6 - Partly cloudy 10 - - - -
25/04:30am 13.2 WSW 10 13 998.6 - 0.4 - Partly cloudy 10 - - - -
25/04:00am 14.1 WSW 14 18 998.7 - 0.0 - Partly cloudy 8 - - - -
25/03:30am 14.2 SW 7 8 998.3 - 0.0 - Partly cloudy 10 - - - -
25/03:00am 14.7 WSW 7 9 998.7 - 0.0 - Mostly cloudy 10 - - - -
25/02:30am 15.9 W 11 16 999.2 - 0.0 - Partly cloudy 10 - - - -
25/02:00am 16.9 NNW 10 15 999.6 - 0.0 - Partly cloudy 10 - - - -
25/01:30am 12.9 SSW 3 4 1000.3 - 0.0 - Partly cloudy 10 - - - -
25/01:00am 13.1 SW 4 5 1000.6 - 0.0 - - 10 - - - -
25/12:30am 14.0 SSW 4 5 1001.1 - 0.0 - - 10 - - - -
25/12:00am 13.5 SSW 2 4 1001.7 - 0.0 - Mostly clear 10 - - - -
 
Date/Time
EDT
Temp

°C
Wind Pressure Rain
since 9am
mm
Weather Cloud Vis
km
Sea
Height
m
Swell
Dir
 
Speed
knots
Gust
knots
hPa Trend Height
m
Period
s
Dir
24/11:30pm 15.1 WSW 3 4 1002.1 - 0.0 - Partly cloudy 10 - - - -
24/11:00pm 16.2 NW 6 8 1002.4 - 0.0 - - 10 - - - -
24/10:30pm 16.6 NNW 7 12 1002.5 - 0.0 - Partly cloudy 10 - - - -
24/10:00pm 16.9 NNW 7 11 1002.5 - 0.0 - Partly cloudy 10 - - - -
24/09:30pm 17.0 N 5 7 1002.1 - 0.0 - Partly cloudy 10 - - - -
24/09:00pm 17.0 NNW 7 9 1002.0 - 0.0 - Mostly cloudy 10 - - - -
24/08:30pm 17.3 NNW 6 9 1001.8 - 0.0 - Cloudy 10 - - - -
24/08:00pm 17.6 NW 11 15 1002.3 - 0.0 - Partly cloudy 10 - - - -
24/07:30pm 17.8 NNW 11 15 1002.2 - 0.0 - Cloudy 10 - - - -
24/07:00pm 17.7 NW 12 18 1002.1 - 0.0 - Partly cloudy 10 - - - -
24/06:30pm 18.0 NW 12 16 1001.8 - 0.0 - Partly cloudy 10 - - - -
24/06:00pm 18.5 NNW 11 17 1002.0 - 0.0 - Mostly clear 10 - - - -
24/05:30pm 19.1 NNW 10 14 1002.2 - 0.0 - Partly cloudy 10 - - - -
24/05:00pm 18.8 NNW 10 14 1002.6 - 0.0 - Partly cloudy 10 - - - -

Other Formats:

Comma delimited format used in spreadsheet applications
http://www.bom.gov.au/fwo/IDT60701/IDT60701.95957.axf

JavaScript Object Notation format (JSON) in row-major order
http://www.bom.gov.au/fwo/IDT60701/IDT60701.95957.json